Date,TemperatureHighF,TemperatureAvgF,TemperatureLowF,DewpointHighF,DewpointAvgF,DewpointLowF,HumidityHigh,HumidityAvg,HumidityLow,PressureMaxIn,PressureMinIn,WindSpeedMaxMPH,WindSpeedAvgMPH,GustSpeedMaxMPH,PrecipitationSumIn
2013-1-1,29,26,23,28,24,21,94,92,90,0.00,40.00,12,7,15,0.00
2013-1-2,21,13,3,10,5,0,90,72,48,0.00,40.00,12,6,15,0.00
2013-1-3,30,22,14,26,16,4,89,78,61,0.00,40.00,15,11,19,0.00
2013-1-4,27,19,9,22,15,8,93,85,78,0.00,40.00,20,13,24,0.00
2013-1-5,35,27,18,31,24,17,93,86,73,0.00,40.00,19,11,22,0.00
2013-1-6,35,30,25,32,26,20,92,87,81,0.00,40.00,22,13,27,0.00
2013-1-7,34,25,14,26,21,13,94,85,70,0.00,40.00,18,10,26,0.00
2013-1-8,39,32,24,29,26,21,88,79,64,0.00,40.00,17,11,21,0.00
2013-1-9,47,40,32,38,34,27,93,80,68,0.00,40.00,16,11,21,0.00
2013-1-10,45,36,30,43,30,24,94,81,68,0.00,40.00,21,11,25,0.00
2013-1-11,57,52,45,52,49,44,94,89,79,0.00,40.00,24,18,30,0.00
2013-1-12,60,54,44,54,51,41,93,87,75,0.00,40.00,24,13,30,0.00
2013-1-13,44,32,19,42,30,17,94,93,87,0.00,40.00,24,9,30,0.00
2013-1-14,22,18,14,18,14,11,90,85,79,0.00,40.00,6,3,7,0.00
2013-1-15,28,23,17,22,18,15,92,82,66,0.00,40.00,14,7,17,0.00
2013-1-16,34,28,21,27,23,20,93,81,58,0.00,40.00,20,10,24,0.00
2013-1-17,37,30,22,31,23,16,92,76,51,0.00,40.00,18,8,21,0.00
2013-1-18,39,29,18,27,20,16,90,72,48,0.00,40.00,29,16,38,0.00
2013-1-19,50,42,36,37,32,26,85,67,54,0.00,40.00,29,22,36,0.00
2013-1-20,42,24,19,36,13,10,80,64,56,0.00,40.00,27,14,38,0.00
2013-1-21,20,14,8,13,6,-3,90,71,53,0.00,40.00,27,16,34,0.00
2013-1-22,15,9,3,1,0,-1,85,66,51,0.00,40.00,17,12,26,0.00
2013-1-23,22,17,11,15,6,2,74,63,50,0.00,40.00,22,7,30,0.00
2013-1-24,21,15,10,13,10,8,91,80,68,0.00,40.00,22,12,30,0.00
2013-6-12,88,84,74,73,72,66,88,67,58,0.00,40.00,19,13,27,0.00
2013-6-13,77,70,62,70,60,51,93,73,44,0.00,40.00,24,13,31,0.00
2013-6-14,81,67,55,60,56,53,92,70,42,0.00,40.00,11,6,16,0.00
2013-6-15,78,68,63,65,62,59,90,81,57,0.00,40.00,9,5,12,0.00
2013-6-16,79,71,67,69,66,63,92,84,67,0.00,40.00,29,11,37,0.00
2013-6-17,89,74,67,71,64,56,93,75,33,0.00,40.00,9,5,11,0.00
2013-6-18,83,73,65,67,62,58,92,71,44,0.00,40.00,16,8,20,0.00
2013-6-19,81,70,61,61,58,55,91,70,42,0.00,40.00,11,7,16,0.00
2013-6-20,85,69,65,64,60,58,81,72,46,0.00,40.00,11,6,17,0.00
2013-6-22,81,81,81,71,71,71,71,71,71,0.00,40.00,11,11,21,0.00
2013-6-25,86,81,69,73,70,64,91,69,56,0.00,40.00,14,11,21,0.00
2013-6-26,80,73,68,72,69,66,93,86,68,0.00,40.00,17,9,23,0.00
2013-6-27,87,73,69,71,68,65,93,85,51,0.00,40.00,12,8,17,0.00
2013-6-28,82,72,65,68,63,54,92,77,38,0.00,40.00,19,9,27,0.00
2013-6-29,73,66,62,67,63,60,93,89,75,0.00,40.00,11,5,17,0.00
2013-6-30,73,68,63,65,62,59,92,82,65,0.00,40.00,19,10,24,0.00
2013-7-1,73,67,64,64,62,60,91,84,65,0.00,40.00,19,11,26,0.00
2013-7-2,74,66,61,65,61,58,92,85,74,0.00,40.00,15,10,19,0.00
2013-7-3,75,69,64,65,63,62,93,82,61,0.00,40.00,14,8,19,0.00
2013-7-4,78,71,60,67,60,55,93,72,45,0.00,40.00,10,4,13,0.00
2013-7-5,82,73,64,67,64,62,93,75,51,0.00,40.00,11,5,15,0.00
2013-7-6,71,70,68,69,68,66,93,92,84,0.00,40.00,12,6,16,0.00
2013-7-7,83,72,65,69,67,63,93,83,59,0.00,40.00,10,7,17,0.00
2013-7-8,85,72,69,74,64,-100,92,86,66,0.00,40.00,16,9,21,0.00
2013-7-9,86,79,75,78,74,72,92,85,65,0.00,40.00,11,8,17,0.00
2013-7-10,82,78,71,77,73,65,92,84,63,0.00,40.00,12,9,20,0.00
2013-7-11,80,70,62,62,59,54,90,68,44,0.00,40.00,14,8,22,0.00
2013-7-12,81,68,57,62,58,53,93,73,40,0.00,40.00,10,6,14,0.00
2013-7-13,83,75,61,68,62,58,92,66,48,0.00,40.00,16,9,21,0.00
2013-7-14,88,76,66,74,68,64,93,77,49,0.00,40.00,10,7,12,0.00
2013-7-15,88,79,73,74,72,70,92,80,56,0.00,40.00,9,6,12,0.00
2013-7-16,91,81,72,74,71,68,92,74,48,0.00,40.00,7,3,8,0.00
2013-7-17,93,83,73,76,72,70,92,71,48,0.00,40.00,7,3,9,0.00
2013-7-18,92,82,72,76,72,69,93,75,45,0.00,40.00,7,4,11,0.00
2013-7-19,90,80,73,75,73,71,92,80,59,0.00,40.00,15,9,21,0.00
2013-7-20,79,74,69,74,72,67,93,90,83,0.00,40.00,12,7,17,0.00
2013-7-21,84,75,67,74,70,65,93,84,64,0.00,40.00,7,4,9,0.00
2013-7-22,84,74,67,71,68,65,93,84,58,0.00,40.00,9,4,13,0.00
2013-7-23,82,73,68,70,66,60,92,80,57,0.00,40.00,17,9,22,0.00
2013-7-24,74,63,55,56,54,51,93,73,46,0.00,40.00,14,9,21,0.00
2013-7-25,80,70,57,58,54,52,92,59,38,0.00,40.00,7,3,9,0.00
2013-7-26,77,68,59,64,60,56,91,76,52,0.00,40.00,10,6,17,0.00
2013-7-27,74,68,63,65,56,50,93,66,49,0.00,40.00,19,10,24,0.00
2013-7-28,70,63,49,55,50,47,93,65,44,0.00,40.00,20,10,26,0.00
2013-7-29,76,65,53,60,53,50,92,68,44,0.00,40.00,11,5,15,0.00
2013-7-30,69,62,58,67,59,55,92,89,82,0.00,40.00,7,5,11,0.00
2013-7-31,75,71,65,70,67,63,93,88,85,0.00,40.00,6,6,10,0.00
2013-8-1,80,75,66,62,56,53,70,51,41,0.00,40.00,15,8,21,0.00
2013-8-2,78,70,58,68,62,54,92,75,58,0.00,40.00,18,11,24,0.00
2013-8-3,82,74,66,68,62,54,93,69,47,0.00,40.00,12,7,19,0.00
2013-8-4,79,71,57,60,56,53,89,60,41,0.00,40.00,9,5,13,0.00
2013-8-5,77,67,60,67,60,55,92,79,47,0.00,40.00,9,4,13,0.00
2013-8-6,80,70,65,72,66,63,93,88,74,0.00,40.00,8,5,11,0.00
2013-8-7,83,75,69,75,71,67,93,88,71,0.00,40.00,12,6,17,0.00
2013-8-8,76,72,69,73,70,67,93,92,90,0.00,40.00,7,5,10,0.00
2013-8-9,82,72,63,68,65,61,93,80,49,0.00,40.00,8,4,12,0.00
2013-8-10,70,68,67,66,65,65,92,91,89,0.00,40.00,4,3,4,0.00